sensor_id;sensor_type;location;lat;lon;timestamp;temperature;humidity
15394;DHT22;7795;47.986;11.868;2023-03-12T00:00:50;4.00;60.50
15394;DHT22;7795;47.986;11.868;2023-03-12T00:03:16;3.90;60.40
15394;DHT22;7795;47.986;11.868;2023-03-12T00:05:42;3.90;60.40
15394;DHT22;7795;47.986;11.868;2023-03-12T00:08:11;3.90;60.50
15394;DHT22;7795;47.986;11.868;2023-03-12T00:10:38;3.90;60.60
15394;DHT22;7795;47.986;11.868;2023-03-12T00:13:05;3.80;60.50
15394;DHT22;7795;47.986;11.868;2023-03-12T00:15:31;3.80;60.60
15394;DHT22;7795;47.986;11.868;2023-03-12T00:17:56;3.80;60.60
15394;DHT22;7795;47.986;11.868;2023-03-12T00:20:22;3.80;60.70
15394;DHT22;7795;47.986;11.868;2023-03-12T00:22:48;3.70;60.60
15394;DHT22;7795;47.986;11.868;2023-03-12T00:25:15;3.70;60.70
15394;DHT22;7795;47.986;11.868;2023-03-12T00:27:42;3.70;61.60
15394;DHT22;7795;47.986;11.868;2023-03-12T00:30:10;3.70;61.00
15394;DHT22;7795;47.986;11.868;2023-03-12T00:32:37;3.70;61.10
15394;DHT22;7795;47.986;11.868;2023-03-12T00:35:04;3.60;61.10
15394;DHT22;7795;47.986;11.868;2023-03-12T00:37:30;3.60;61.30
15394;DHT22;7795;47.986;11.868;2023-03-12T00:39:57;3.60;61.30
15394;DHT22;7795;47.986;11.868;2023-03-12T00:42:25;3.60;61.30
15394;DHT22;7795;47.986;11.868;2023-03-12T00:44:50;3.60;61.40
15394;DHT22;7795;47.986;11.868;2023-03-12T00:47:16;3.60;61.40
15394;DHT22;7795;47.986;11.868;2023-03-12T00:49:42;3.60;61.50
15394;DHT22;7795;47.986;11.868;2023-03-12T00:52:08;3.60;61.50
15394;DHT22;7795;47.986;11.868;2023-03-12T00:54:33;3.60;61.60
15394;DHT22;7795;47.986;11.868;2023-03-12T00:56:59;3.60;61.60
15394;DHT22;7795;47.986;11.868;2023-03-12T00:59:26;3.60;61.60
15394;DHT22;7795;47.986;11.868;2023-03-12T01:01:52;3.60;61.70
15394;DHT22;7795;47.986;11.868;2023-03-12T01:04:18;3.50;61.60
15394;DHT22;7795;47.986;11.868;2023-03-12T01:06:44;3.50;61.60
15394;DHT22;7795;47.986;11.868;2023-03-12T01:09:09;3.50;61.60
15394;DHT22;7795;47.986;11.868;2023-03-12T01:11:36;3.50;61.70
15394;DHT22;7795;47.986;11.868;2023-03-12T01:14:03;3.40;61.60
15394;DHT22;7795;47.986;11.868;2023-03-12T01:16:30;3.40;61.70
15394;DHT22;7795;47.986;11.868;2023-03-12T01:18:58;3.40;61.70
15394;DHT22;7795;47.986;11.868;2023-03-12T01:21:24;3.30;61.70
15394;DHT22;7795;47.986;11.868;2023-03-12T01:23:51;3.30;61.80
15394;DHT22;7795;47.986;11.868;2023-03-12T01:26:17;3.30;61.90
15394;DHT22;7795;47.986;11.868;2023-03-12T01:28:43;3.30;62.00
15394;DHT22;7795;47.986;11.868;2023-03-12T01:31:11;3.20;62.00
15394;DHT22;7795;47.986;11.868;2023-03-12T01:33:38;3.20;62.20
15394;DHT22;7795;47.986;11.868;2023-03-12T01:36:11;3.20;62.30
15394;DHT22;7795;47.986;11.868;2023-03-12T01:38:39;3.20;63.00
15394;DHT22;7795;47.986;11.868;2023-03-12T01:41:05;3.20;62.30
15394;DHT22;7795;47.986;11.868;2023-03-12T01:43:32;3.20;62.40
15394;DHT22;7795;47.986;11.868;2023-03-12T01:46:26;3.20;62.50
15394;DHT22;7795;47.986;11.868;2023-03-12T01:48:56;3.20;62.90
15394;DHT22;7795;47.986;11.868;2023-03-12T01:51:25;3.20;62.50
15394;DHT22;7795;47.986;11.868;2023-03-12T01:53:54;3.20;62.50
15394;DHT22;7795;47.986;11.868;2023-03-12T01:56:21;3.10;62.50
15394;DHT22;7795;47.986;11.868;2023-03-12T01:58:51;3.10;63.30
15394;DHT22;7795;47.986;11.868;2023-03-12T02:01:18;3.10;62.70
15394;DHT22;7795;47.986;11.868;2023-03-12T02:03:45;3.10;62.60
15394;DHT22;7795;47.986;11.868;2023-03-12T02:06:14;3.10;62.70
15394;DHT22;7795;47.986;11.868;2023-03-12T02:08:42;3.10;62.90
15394;DHT22;7795;47.986;11.868;2023-03-12T02:11:08;3.10;62.90
15394;DHT22;7795;47.986;11.868;2023-03-12T02:13:34;3.10;62.90
15394;DHT22;7795;47.986;11.868;2023-03-12T02:16:00;3.00;62.90
15394;DHT22;7795;47.986;11.868;2023-03-12T02:18:27;3.00;62.90
15394;DHT22;7795;47.986;11.868;2023-03-12T02:20:55;3.00;63.00
15394;DHT22;7795;47.986;11.868;2023-03-12T02:23:29;3.00;63.20
15394;DHT22;7795;47.986;11.868;2023-03-12T02:25:59;3.00;63.20
15394;DHT22;7795;47.986;11.868;2023-03-12T02:28:27;3.00;63.20
15394;DHT22;7795;47.986;11.868;2023-03-12T02:30:58;3.00;63.30
15394;DHT22;7795;47.986;11.868;2023-03-12T02:33:25;3.00;63.40
15394;DHT22;7795;47.986;11.868;2023-03-12T02:35:52;3.00;63.30
15394;DHT22;7795;47.986;11.868;2023-03-12T02:38:38;3.00;63.40
15394;DHT22;7795;47.986;11.868;2023-03-12T02:41:11;3.00;64.00
15394;DHT22;7795;47.986;11.868;2023-03-12T02:43:38;3.00;63.70
15394;DHT22;7795;47.986;11.868;2023-03-12T02:46:04;3.00;63.60
15394;DHT22;7795;47.986;11.868;2023-03-12T02:48:30;3.00;63.60
15394;DHT22;7795;47.986;11.868;2023-03-12T02:50:56;2.90;63.60
15394;DHT22;7795;47.986;11.868;2023-03-12T02:53:22;3.00;63.80
15394;DHT22;7795;47.986;11.868;2023-03-12T02:55:47;3.00;63.80
15394;DHT22;7795;47.986;11.868;2023-03-12T02:58:15;3.00;63.80
15394;DHT22;7795;47.986;11.868;2023-03-12T03:00:40;3.00;63.90
15394;DHT22;7795;47.986;11.868;2023-03-12T03:03:06;3.00;63.90
15394;DHT22;7795;47.986;11.868;2023-03-12T03:05:32;3.00;63.90
15394;DHT22;7795;47.986;11.868;2023-03-12T03:07:58;3.00;64.10
15394;DHT22;7795;47.986;11.868;2023-03-12T03:10:23;3.00;64.10
15394;DHT22;7795;47.986;11.868;2023-03-12T03:12:49;3.00;64.20
15394;DHT22;7795;47.986;11.868;2023-03-12T03:15:17;3.00;64.20
15394;DHT22;7795;47.986;11.868;2023-03-12T03:17:43;3.00;64.20
15394;DHT22;7795;47.986;11.868;2023-03-12T03:20:09;3.10;64.20
15394;DHT22;7795;47.986;11.868;2023-03-12T03:22:36;3.10;64.20
15394;DHT22;7795;47.986;11.868;2023-03-12T03:25:03;3.10;64.10
15394;DHT22;7795;47.986;11.868;2023-03-12T03:27:29;3.10;64.10
15394;DHT22;7795;47.986;11.868;2023-03-12T03:29:54;3.10;64.10
15394;DHT22;7795;47.986;11.868;2023-03-12T03:32:21;3.10;64.10
15394;DHT22;7795;47.986;11.868;2023-03-12T03:34:47;3.10;64.20
15394;DHT22;7795;47.986;11.868;2023-03-12T03:37:13;3.10;64.10
15394;DHT22;7795;47.986;11.868;2023-03-12T03:39:38;3.10;64.10
15394;DHT22;7795;47.986;11.868;2023-03-12T03:42:04;3.10;64.10
15394;DHT22;7795;47.986;11.868;2023-03-12T03:44:30;3.10;64.10
15394;DHT22;7795;47.986;11.868;2023-03-12T03:46:56;3.10;64.10
15394;DHT22;7795;47.986;11.868;2023-03-12T03:49:23;3.10;64.20
15394;DHT22;7795;47.986;11.868;2023-03-12T03:51:49;3.10;64.30
15394;DHT22;7795;47.986;11.868;2023-03-12T03:54:16;3.10;64.20
15394;DHT22;7795;47.986;11.868;2023-03-12T03:56:42;3.10;64.30
15394;DHT22;7795;47.986;11.868;2023-03-12T03:59:08;3.10;64.30
15394;DHT22;7795;47.986;11.868;2023-03-12T04:01:34;3.10;64.20
15394;DHT22;7795;47.986;11.868;2023-03-12T04:04:01;3.10;64.30
15394;DHT22;7795;47.986;11.868;2023-03-12T04:06:29;3.10;64.40
15394;DHT22;7795;47.986;11.868;2023-03-12T04:08:55;3.10;64.50
15394;DHT22;7795;47.986;11.868;2023-03-12T04:11:21;3.10;64.60
15394;DHT22;7795;47.986;11.868;2023-03-12T04:13:47;3.10;64.60
15394;DHT22;7795;47.986;11.868;2023-03-12T04:16:13;3.10;64.60
15394;DHT22;7795;47.986;11.868;2023-03-12T04:18:40;3.10;64.80
15394;DHT22;7795;47.986;11.868;2023-03-12T04:21:13;3.20;65.60
15394;DHT22;7795;47.986;11.868;2023-03-12T04:23:40;3.20;64.90
15394;DHT22;7795;47.986;11.868;2023-03-12T04:26:07;3.20;65.00
15394;DHT22;7795;47.986;11.868;2023-03-12T04:28:33;3.20;65.00
15394;DHT22;7795;47.986;11.868;2023-03-12T04:31:00;3.20;65.10
15394;DHT22;7795;47.986;11.868;2023-03-12T04:33:26;3.30;65.20
15394;DHT22;7795;47.986;11.868;2023-03-12T04:35:52;3.30;65.20
15394;DHT22;7795;47.986;11.868;2023-03-12T04:38:18;3.30;65.20
15394;DHT22;7795;47.986;11.868;2023-03-12T04:40:45;3.30;65.30
15394;DHT22;7795;47.986;11.868;2023-03-12T04:43:11;3.30;65.30
15394;DHT22;7795;47.986;11.868;2023-03-12T04:45:37;3.40;65.40
15394;DHT22;7795;47.986;11.868;2023-03-12T04:48:04;3.40;65.50
15394;DHT22;7795;47.986;11.868;2023-03-12T04:50:30;3.40;65.50
15394;DHT22;7795;47.986;11.868;2023-03-12T04:52:55;3.40;65.50
15394;DHT22;7795;47.986;11.868;2023-03-12T04:55:22;3.40;65.60
15394;DHT22;7795;47.986;11.868;2023-03-12T04:57:49;3.40;66.40
15394;DHT22;7795;47.986;11.868;2023-03-12T05:00:16;3.50;65.70
15394;DHT22;7795;47.986;11.868;2023-03-12T05:02:42;3.50;65.70
15394;DHT22;7795;47.986;11.868;2023-03-12T05:05:10;3.50;66.40
15394;DHT22;7795;47.986;11.868;2023-03-12T05:07:36;3.50;65.80
15394;DHT22;7795;47.986;11.868;2023-03-12T05:10:01;3.50;65.70
15394;DHT22;7795;47.986;11.868;2023-03-12T05:12:27;3.60;65.80
15394;DHT22;7795;47.986;11.868;2023-03-12T05:14:54;3.60;65.80
15394;DHT22;7795;47.986;11.868;2023-03-12T05:17:20;3.60;65.80
15394;DHT22;7795;47.986;11.868;2023-03-12T05:19:46;3.60;65.80
15394;DHT22;7795;47.986;11.868;2023-03-12T05:22:12;3.70;65.90
15394;DHT22;7795;47.986;11.868;2023-03-12T05:24:37;3.60;65.80
15394;DHT22;7795;47.986;11.868;2023-03-12T05:27:03;3.70;65.90
15394;DHT22;7795;47.986;11.868;2023-03-12T05:29:29;3.70;65.90
15394;DHT22;7795;47.986;11.868;2023-03-12T05:32:01;3.70;66.00
15394;DHT22;7795;47.986;11.868;2023-03-12T05:34:27;3.70;66.10
15394;DHT22;7795;47.986;11.868;2023-03-12T05:36:54;3.80;66.10
15394;DHT22;7795;47.986;11.868;2023-03-12T05:39:20;3.80;66.10
15394;DHT22;7795;47.986;11.868;2023-03-12T05:41:46;3.80;66.20
15394;DHT22;7795;47.986;11.868;2023-03-12T05:44:12;3.80;66.20
15394;DHT22;7795;47.986;11.868;2023-03-12T05:46:41;3.80;66.30
15394;DHT22;7795;47.986;11.868;2023-03-12T05:49:08;3.90;66.40
15394;DHT22;7795;47.986;11.868;2023-03-12T05:51:34;3.80;66.40
15394;DHT22;7795;47.986;11.868;2023-03-12T05:54:00;3.90;67.20
15394;DHT22;7795;47.986;11.868;2023-03-12T05:56:26;3.90;66.50
15394;DHT22;7795;47.986;11.868;2023-03-12T05:58:52;3.90;66.60
15394;DHT22;7795;47.986;11.868;2023-03-12T06:01:20;4.00;66.60
15394;DHT22;7795;47.986;11.868;2023-03-12T06:03:47;4.00;66.70
15394;DHT22;7795;47.986;11.868;2023-03-12T06:06:14;4.00;66.60
15394;DHT22;7795;47.986;11.868;2023-03-12T06:08:41;4.00;66.80
15394;DHT22;7795;47.986;11.868;2023-03-12T06:11:07;4.10;66.80
15394;DHT22;7795;47.986;11.868;2023-03-12T06:13:33;4.10;66.90
15394;DHT22;7795;47.986;11.868;2023-03-12T06:16:02;4.10;66.90
15394;DHT22;7795;47.986;11.868;2023-03-12T06:18:29;4.20;67.10
15394;DHT22;7795;47.986;11.868;2023-03-12T06:20:55;4.20;67.00
15394;DHT22;7795;47.986;11.868;2023-03-12T06:23:22;4.20;67.00
15394;DHT22;7795;47.986;11.868;2023-03-12T06:25:47;4.20;67.00
15394;DHT22;7795;47.986;11.868;2023-03-12T06:28:13;4.30;67.70
15394;DHT22;7795;47.986;11.868;2023-03-12T06:30:39;4.30;67.00
15394;DHT22;7795;47.986;11.868;2023-03-12T06:33:04;4.30;67.10
15394;DHT22;7795;47.986;11.868;2023-03-12T06:35:33;4.30;67.10
15394;DHT22;7795;47.986;11.868;2023-03-12T06:37:59;4.30;67.30
15394;DHT22;7795;47.986;11.868;2023-03-12T06:40:26;4.40;67.50
15394;DHT22;7795;47.986;11.868;2023-03-12T06:42:52;4.40;67.80
15394;DHT22;7795;47.986;11.868;2023-03-12T06:45:17;4.40;67.90
15394;DHT22;7795;47.986;11.868;2023-03-12T06:47:46;4.50;68.20
15394;DHT22;7795;47.986;11.868;2023-03-12T06:50:12;4.50;68.50
15394;DHT22;7795;47.986;11.868;2023-03-12T06:52:38;4.50;68.70
15394;DHT22;7795;47.986;11.868;2023-03-12T06:55:05;4.60;68.80
15394;DHT22;7795;47.986;11.868;2023-03-12T06:57:32;4.70;69.00
15394;DHT22;7795;47.986;11.868;2023-03-12T06:59:58;4.70;69.90
15394;DHT22;7795;47.986;11.868;2023-03-12T07:02:24;4.80;69.20
15394;DHT22;7795;47.986;11.868;2023-03-12T07:04:49;4.80;69.20
15394;DHT22;7795;47.986;11.868;2023-03-12T07:07:15;4.90;69.20
15394;DHT22;7795;47.986;11.868;2023-03-12T07:09:41;5.00;69.30
15394;DHT22;7795;47.986;11.868;2023-03-12T07:12:08;5.00;69.30
15394;DHT22;7795;47.986;11.868;2023-03-12T07:14:35;5.10;69.40
15394;DHT22;7795;47.986;11.868;2023-03-12T07:17:00;5.10;69.60
15394;DHT22;7795;47.986;11.868;2023-03-12T07:19:26;5.20;69.60
15394;DHT22;7795;47.986;11.868;2023-03-12T07:21:54;5.30;69.60
15394;DHT22;7795;47.986;11.868;2023-03-12T07:24:20;5.30;69.40
15394;DHT22;7795;47.986;11.868;2023-03-12T07:26:46;5.40;69.50
15394;DHT22;7795;47.986;11.868;2023-03-12T07:29:11;5.50;69.60
15394;DHT22;7795;47.986;11.868;2023-03-12T07:31:38;5.50;69.50
15394;DHT22;7795;47.986;11.868;2023-03-12T07:34:04;5.60;69.70
15394;DHT22;7795;47.986;11.868;2023-03-12T07:36:30;5.60;69.60
15394;DHT22;7795;47.986;11.868;2023-03-12T07:38:56;5.70;69.70
15394;DHT22;7795;47.986;11.868;2023-03-12T07:41:22;5.70;69.60
15394;DHT22;7795;47.986;11.868;2023-03-12T07:43:48;5.80;69.70
15394;DHT22;7795;47.986;11.868;2023-03-12T07:46:14;5.90;69.80
15394;DHT22;7795;47.986;11.868;2023-03-12T07:48:41;5.90;69.80
15394;DHT22;7795;47.986;11.868;2023-03-12T07:51:07;5.90;70.00
15394;DHT22;7795;47.986;11.868;2023-03-12T07:53:32;5.90;69.90
15394;DHT22;7795;47.986;11.868;2023-03-12T07:55:58;6.00;70.00
15394;DHT22;7795;47.986;11.868;2023-03-12T07:58:24;6.00;70.10
15394;DHT22;7795;47.986;11.868;2023-03-12T08:00:49;6.00;70.10
15394;DHT22;7795;47.986;11.868;2023-03-12T08:03:15;6.10;70.20
15394;DHT22;7795;47.986;11.868;2023-03-12T08:05:42;6.10;70.30
15394;DHT22;7795;47.986;11.868;2023-03-12T08:08:08;6.10;70.50
15394;DHT22;7795;47.986;11.868;2023-03-12T08:10:35;6.20;70.40
15394;DHT22;7795;47.986;11.868;2023-03-12T08:13:01;6.20;70.50
15394;DHT22;7795;47.986;11.868;2023-03-12T08:15:27;6.20;70.60
15394;DHT22;7795;47.986;11.868;2023-03-12T08:17:53;6.30;70.70
15394;DHT22;7795;47.986;11.868;2023-03-12T08:20:19;6.30;70.80
15394;DHT22;7795;47.986;11.868;2023-03-12T08:22:49;6.30;70.90
15394;DHT22;7795;47.986;11.868;2023-03-12T08:25:14;6.40;71.20
15394;DHT22;7795;47.986;11.868;2023-03-12T08:27:40;6.50;71.00
15394;DHT22;7795;47.986;11.868;2023-03-12T08:30:07;6.50;71.10
15394;DHT22;7795;47.986;11.868;2023-03-12T08:32:33;6.60;71.20
15394;DHT22;7795;47.986;11.868;2023-03-12T08:34:58;6.60;71.20
15394;DHT22;7795;47.986;11.868;2023-03-12T08:37:24;6.60;71.10
15394;DHT22;7795;47.986;11.868;2023-03-12T08:39:51;6.70;72.00
15394;DHT22;7795;47.986;11.868;2023-03-12T08:42:17;6.70;71.20
15394;DHT22;7795;47.986;11.868;2023-03-12T08:44:43;6.80;71.20
15394;DHT22;7795;47.986;11.868;2023-03-12T08:47:08;6.80;71.30
15394;DHT22;7795;47.986;11.868;2023-03-12T08:49:34;6.90;71.20
15394;DHT22;7795;47.986;11.868;2023-03-12T08:52:00;6.90;71.10
15394;DHT22;7795;47.986;11.868;2023-03-12T08:54:26;7.00;71.20
15394;DHT22;7795;47.986;11.868;2023-03-12T08:56:53;7.00;71.20
15394;DHT22;7795;47.986;11.868;2023-03-12T08:59:19;7.10;71.40
15394;DHT22;7795;47.986;11.868;2023-03-12T09:01:45;7.10;71.30
15394;DHT22;7795;47.986;11.868;2023-03-12T09:04:11;7.20;71.40
15394;DHT22;7795;47.986;11.868;2023-03-12T09:06:37;7.20;71.50
15394;DHT22;7795;47.986;11.868;2023-03-12T09:09:03;7.20;71.40
15394;DHT22;7795;47.986;11.868;2023-03-12T09:11:30;7.20;71.40
15394;DHT22;7795;47.986;11.868;2023-03-12T09:13:57;7.20;71.30
15394;DHT22;7795;47.986;11.868;2023-03-12T09:16:23;7.20;71.40
15394;DHT22;7795;47.986;11.868;2023-03-12T09:18:49;7.30;71.40
15394;DHT22;7795;47.986;11.868;2023-03-12T09:21:15;7.30;71.40
15394;DHT22;7795;47.986;11.868;2023-03-12T09:23:40;7.30;71.40
15394;DHT22;7795;47.986;11.868;2023-03-12T09:26:08;7.30;71.40
15394;DHT22;7795;47.986;11.868;2023-03-12T09:28:34;7.30;71.50
15394;DHT22;7795;47.986;11.868;2023-03-12T09:31:01;7.40;71.50
15394;DHT22;7795;47.986;11.868;2023-03-12T09:33:27;7.30;71.80
15394;DHT22;7795;47.986;11.868;2023-03-12T09:35:56;7.30;71.70
15394;DHT22;7795;47.986;11.868;2023-03-12T09:38:22;7.30;71.90
15394;DHT22;7795;47.986;11.868;2023-03-12T09:40:48;7.30;71.70
15394;DHT22;7795;47.986;11.868;2023-03-12T09:43:20;7.40;72.10
15394;DHT22;7795;47.986;11.868;2023-03-12T09:45:48;7.40;72.20
15394;DHT22;7795;47.986;11.868;2023-03-12T09:48:18;7.40;72.10
15394;DHT22;7795;47.986;11.868;2023-03-12T09:50:48;7.40;72.40
15394;DHT22;7795;47.986;11.868;2023-03-12T09:53:20;7.50;72.30
15394;DHT22;7795;47.986;11.868;2023-03-12T09:55:49;7.50;72.40
15394;DHT22;7795;47.986;11.868;2023-03-12T09:58:21;7.60;72.10
15394;DHT22;7795;47.986;11.868;2023-03-12T10:00:52;7.60;72.10
15394;DHT22;7795;47.986;11.868;2023-03-12T10:03:28;7.60;71.90
15394;DHT22;7795;47.986;11.868;2023-03-12T10:06:05;7.60;72.00
15394;DHT22;7795;47.986;11.868;2023-03-12T10:08:42;7.60;71.60
15394;DHT22;7795;47.986;11.868;2023-03-12T10:11:17;7.60;71.70
15394;DHT22;7795;47.986;11.868;2023-03-12T10:13:56;7.60;71.40
15394;DHT22;7795;47.986;11.868;2023-03-12T10:16:40;7.60;72.20
15394;DHT22;7795;47.986;11.868;2023-03-12T10:19:19;7.50;71.40
15394;DHT22;7795;47.986;11.868;2023-03-12T10:21:51;7.50;71.40
15394;DHT22;7795;47.986;11.868;2023-03-12T10:24:25;7.50;71.20
15394;DHT22;7795;47.986;11.868;2023-03-12T10:26:57;7.50;71.20
15394;DHT22;7795;47.986;11.868;2023-03-12T10:29:25;7.50;71.10
15394;DHT22;7795;47.986;11.868;2023-03-12T10:31:56;7.50;71.20
15394;DHT22;7795;47.986;11.868;2023-03-12T10:34:29;7.50;71.20
15394;DHT22;7795;47.986;11.868;2023-03-12T10:36:58;7.50;71.40
15394;DHT22;7795;47.986;11.868;2023-03-12T10:39:27;7.40;71.20
15394;DHT22;7795;47.986;11.868;2023-03-12T10:41:56;7.50;71.20
15394;DHT22;7795;47.986;11.868;2023-03-12T10:44:24;7.50;71.20
15394;DHT22;7795;47.986;11.868;2023-03-12T10:46:57;7.50;71.20
15394;DHT22;7795;47.986;11.868;2023-03-12T10:49:28;7.50;71.50
15394;DHT22;7795;47.986;11.868;2023-03-12T10:51:57;7.50;71.50
15394;DHT22;7795;47.986;11.868;2023-03-12T10:54:28;7.50;71.60
15394;DHT22;7795;47.986;11.868;2023-03-12T10:56:54;7.60;71.70
15394;DHT22;7795;47.986;11.868;2023-03-12T10:59:21;7.60;71.50
15394;DHT22;7795;47.986;11.868;2023-03-12T11:01:49;7.60;71.70
15394;DHT22;7795;47.986;11.868;2023-03-12T11:04:17;7.60;71.70
15394;DHT22;7795;47.986;11.868;2023-03-12T11:07:06;7.60;71.70
15394;DHT22;7795;47.986;11.868;2023-03-12T11:09:32;7.60;72.40
15394;DHT22;7795;47.986;11.868;2023-03-12T11:11:58;7.60;71.80
15394;DHT22;7795;47.986;11.868;2023-03-12T11:14:25;7.60;71.90
15394;DHT22;7795;47.986;11.868;2023-03-12T11:16:52;7.60;72.70
15394;DHT22;7795;47.986;11.868;2023-03-12T11:19:27;7.60;72.70
15394;DHT22;7795;47.986;11.868;2023-03-12T11:21:56;7.60;72.40
15394;DHT22;7795;47.986;11.868;2023-03-12T11:24:23;7.60;72.10
15394;DHT22;7795;47.986;11.868;2023-03-12T11:26:49;7.60;72.10
15394;DHT22;7795;47.986;11.868;2023-03-12T11:29:26;7.60;72.10
15394;DHT22;7795;47.986;11.868;2023-03-12T11:32:05;7.60;72.40
15394;DHT22;7795;47.986;11.868;2023-03-12T11:34:37;7.60;72.50
15394;DHT22;7795;47.986;11.868;2023-03-12T11:37:09;7.60;72.10
15394;DHT22;7795;47.986;11.868;2023-03-12T11:39:55;7.60;72.40
15394;DHT22;7795;47.986;11.868;2023-03-12T11:42:40;7.70;72.70
15394;DHT22;7795;47.986;11.868;2023-03-12T11:45:17;7.70;72.70
15394;DHT22;7795;47.986;11.868;2023-03-12T11:48:03;7.70;73.40
15394;DHT22;7795;47.986;11.868;2023-03-12T11:50:46;7.70;72.80
15394;DHT22;7795;47.986;11.868;2023-03-12T11:53:26;7.70;73.10
15394;DHT22;7795;47.986;11.868;2023-03-12T11:56:08;7.70;73.10
15394;DHT22;7795;47.986;11.868;2023-03-12T11:58:51;7.70;73.10
15394;DHT22;7795;47.986;11.868;2023-03-12T12:01:24;7.80;73.50
15394;DHT22;7795;47.986;11.868;2023-03-12T12:04:18;7.90;73.30
15394;DHT22;7795;47.986;11.868;2023-03-12T12:06:58;7.90;73.50
15394;DHT22;7795;47.986;11.868;2023-03-12T12:09:36;7.90;73.10
15394;DHT22;7795;47.986;11.868;2023-03-12T12:12:33;8.00;73.30
15394;DHT22;7795;47.986;11.868;2023-03-12T12:15:13;8.10;73.60
15394;DHT22;7795;47.986;11.868;2023-03-12T12:17:49;8.10;73.60
15394;DHT22;7795;47.986;11.868;2023-03-12T12:20:29;8.20;73.60
15394;DHT22;7795;47.986;11.868;2023-03-12T12:23:09;8.20;73.70
15394;DHT22;7795;47.986;11.868;2023-03-12T12:28:53;8.40;74.00
15394;DHT22;7795;47.986;11.868;2023-03-12T12:31:31;8.50;74.20
15394;DHT22;7795;47.986;11.868;2023-03-12T12:34:12;8.50;73.90
15394;DHT22;7795;47.986;11.868;2023-03-12T12:36:47;8.60;73.90
15394;DHT22;7795;47.986;11.868;2023-03-12T12:39:16;8.70;73.80
15394;DHT22;7795;47.986;11.868;2023-03-12T12:41:49;8.70;73.70
15394;DHT22;7795;47.986;11.868;2023-03-12T12:44:17;8.80;74.10
15394;DHT22;7795;47.986;11.868;2023-03-12T12:46:49;8.90;73.90
15394;DHT22;7795;47.986;11.868;2023-03-12T12:49:20;9.00;74.10
15394;DHT22;7795;47.986;11.868;2023-03-12T12:51:49;9.10;74.10
15394;DHT22;7795;47.986;11.868;2023-03-12T12:54:21;9.10;73.80
15394;DHT22;7795;47.986;11.868;2023-03-12T12:56:51;9.20;73.90
15394;DHT22;7795;47.986;11.868;2023-03-12T12:59:26;9.30;73.70
15394;DHT22;7795;47.986;11.868;2023-03-12T13:01:56;9.40;73.90
15394;DHT22;7795;47.986;11.868;2023-03-12T13:04:24;9.40;73.50
15394;DHT22;7795;47.986;11.868;2023-03-12T13:06:57;9.50;73.60
15394;DHT22;7795;47.986;11.868;2023-03-12T13:09:38;9.50;73.60
15394;DHT22;7795;47.986;11.868;2023-03-12T13:12:19;9.60;73.80
15394;DHT22;7795;47.986;11.868;2023-03-12T13:14:47;9.60;73.80
15394;DHT22;7795;47.986;11.868;2023-03-12T13:17:21;9.60;73.20
15394;DHT22;7795;47.986;11.868;2023-03-12T13:19:47;9.60;73.50
15394;DHT22;7795;47.986;11.868;2023-03-12T13:22:23;9.70;73.20
15394;DHT22;7795;47.986;11.868;2023-03-12T13:24:56;9.70;73.50
15394;DHT22;7795;47.986;11.868;2023-03-12T13:27:29;9.70;73.40
15394;DHT22;7795;47.986;11.868;2023-03-12T13:29:55;9.70;73.50
15394;DHT22;7795;47.986;11.868;2023-03-12T13:33:04;9.70;73.50
15394;DHT22;7795;47.986;11.868;2023-03-12T13:35:32;9.70;74.60
15394;DHT22;7795;47.986;11.868;2023-03-12T13:38:06;9.70;73.60
15394;DHT22;7795;47.986;11.868;2023-03-12T13:46:37;9.80;74.50
15394;DHT22;7795;47.986;11.868;2023-03-12T13:49:09;9.90;74.60
15394;DHT22;7795;47.986;11.868;2023-03-12T13:51:43;9.90;74.00
15394;DHT22;7795;47.986;11.868;2023-03-12T13:54:15;9.90;74.30
15394;DHT22;7795;47.986;11.868;2023-03-12T13:56:45;10.00;74.30
15394;DHT22;7795;47.986;11.868;2023-03-12T13:59:15;10.00;74.30
15394;DHT22;7795;47.986;11.868;2023-03-12T14:01:46;10.00;74.30
15394;DHT22;7795;47.986;11.868;2023-03-12T14:04:17;10.00;74.40
15394;DHT22;7795;47.986;11.868;2023-03-12T14:06:57;10.00;74.50
15394;DHT22;7795;47.986;11.868;2023-03-12T14:09:30;10.10;75.00
15394;DHT22;7795;47.986;11.868;2023-03-12T14:12:03;10.10;74.70
15394;DHT22;7795;47.986;11.868;2023-03-12T14:14:45;10.10;75.40
15394;DHT22;7795;47.986;11.868;2023-03-12T14:17:16;10.10;75.00
15394;DHT22;7795;47.986;11.868;2023-03-12T14:19:46;10.10;74.70
15394;DHT22;7795;47.986;11.868;2023-03-12T14:22:14;10.10;74.90
15394;DHT22;7795;47.986;11.868;2023-03-12T14:24:47;10.10;74.80
15394;DHT22;7795;47.986;11.868;2023-03-12T14:27:17;10.20;75.30
15394;DHT22;7795;47.986;11.868;2023-03-12T14:29:48;10.20;75.10
15394;DHT22;7795;47.986;11.868;2023-03-12T14:32:18;10.20;75.20
15394;DHT22;7795;47.986;11.868;2023-03-12T14:34:46;10.20;75.10
15394;DHT22;7795;47.986;11.868;2023-03-12T14:37:16;10.30;75.20
15394;DHT22;7795;47.986;11.868;2023-03-12T14:39:46;10.30;75.40
15394;DHT22;7795;47.986;11.868;2023-03-12T14:42:19;10.30;75.40
15394;DHT22;7795;47.986;11.868;2023-03-12T14:44:57;10.30;75.80
15394;DHT22;7795;47.986;11.868;2023-03-12T14:47:23;10.40;76.00
15394;DHT22;7795;47.986;11.868;2023-03-12T14:49:49;10.40;75.70
15394;DHT22;7795;47.986;11.868;2023-03-12T14:52:21;10.40;75.80
15394;DHT22;7795;47.986;11.868;2023-03-12T14:54:55;10.50;76.30
15394;DHT22;7795;47.986;11.868;2023-03-12T14:57:21;10.50;76.40
15394;DHT22;7795;47.986;11.868;2023-03-12T14:59:51;10.50;76.00
15394;DHT22;7795;47.986;11.868;2023-03-12T15:02:19;10.60;76.30
15394;DHT22;7795;47.986;11.868;2023-03-12T15:04:47;10.60;76.30
15394;DHT22;7795;47.986;11.868;2023-03-12T15:07:15;10.70;76.30
15394;DHT22;7795;47.986;11.868;2023-03-12T15:09:45;10.70;76.40
15394;DHT22;7795;47.986;11.868;2023-03-12T15:12:18;10.80;76.60
15394;DHT22;7795;47.986;11.868;2023-03-12T15:14:44;10.80;76.90
15394;DHT22;7795;47.986;11.868;2023-03-12T15:17:14;10.80;76.60
15394;DHT22;7795;47.986;11.868;2023-03-12T15:19:42;10.90;77.10
15394;DHT22;7795;47.986;11.868;2023-03-12T15:22:10;10.90;77.10
15394;DHT22;7795;47.986;11.868;2023-03-12T15:24:38;11.00;77.10
15394;DHT22;7795;47.986;11.868;2023-03-12T15:27:19;11.00;77.20
15394;DHT22;7795;47.986;11.868;2023-03-12T15:29:45;11.10;77.90
15394;DHT22;7795;47.986;11.868;2023-03-12T15:32:13;11.10;77.10
15394;DHT22;7795;47.986;11.868;2023-03-12T15:34:39;11.20;77.20
15394;DHT22;7795;47.986;11.868;2023-03-12T15:37:21;11.20;77.10
15394;DHT22;7795;47.986;11.868;2023-03-12T15:39:49;11.30;77.70
15394;DHT22;7795;47.986;11.868;2023-03-12T15:42:17;11.30;76.70
15394;DHT22;7795;47.986;11.868;2023-03-12T15:44:46;11.40;76.80
15394;DHT22;7795;47.986;11.868;2023-03-12T15:47:14;11.40;76.60
15394;DHT22;7795;47.986;11.868;2023-03-12T15:49:41;11.50;76.60
15394;DHT22;7795;47.986;11.868;2023-03-12T15:52:30;11.50;76.60
15394;DHT22;7795;47.986;11.868;2023-03-12T15:55:19;11.60;77.30
15394;DHT22;7795;47.986;11.868;2023-03-12T15:57:48;11.60;76.70
15394;DHT22;7795;47.986;11.868;2023-03-12T16:00:18;11.70;76.30
15394;DHT22;7795;47.986;11.868;2023-03-12T16:02:50;11.70;76.20
15394;DHT22;7795;47.986;11.868;2023-03-12T16:05:16;11.70;76.90